Portada
METAR-TAF:

METAR-TAF

Aeroports :

Iakutsk, Rússia

latitud: 62-01N, longitud: 129-43E, altitud: 103 m

Observació

L'informe es va fer fa 34 minuts, a les 19:30 UTC
Vent 2 kt del Oest
Temperatura 4°C
Humitat 75%
Pressió 1007 hPa
Visibilitat 10 km o més
sense núvols per sota de 1500 mi sense presència de cumulonimbus.

METAR: UEEE 011930Z 27001MPS CAVOK 04/M00 Q1007 R23L/09//60 NOSIG RMK QFE746

Hora: 05:04 (20:04 UTC)

Pronòstic

L'informe es va fer fa 3 hores i 4 minuts, a les 17:00 UTC
Pronòstic vàlid del 01 a les 18 UTC al 02 a les 24 UTC
Vent 6 kt del Nord-Oest
Visibilitat 10 km o més
sense núvols per sota de 1500 mi sense presència de cumulonimbus.

TAF: UEEE 011700Z 0118/0224 32003MPS CAVOK

Observacions i pronòstics meteorològics de més de 4000 aeroports (METAR i TAF).

Les estacions disponibles són els punts grocs i vermells al mapa.

Posi el ratolí al punt desitjat per veure el nom de l'estació.

Feu clic per veure les observacions i els pronòstics meteorològics.

Per canviar el mapa: feu clic els botons verds amb una creu de color negre per apropar; al botó verd amb un guió per allunyar la imatge; o en les fletxes verdes per a mapes adjacents.


METAR-TAF: